Miami, Florida
Current Conditions -  °F | °C
As of 12:53 PM on Saturday 25 Oct 2014 (Local Time) from KMIA Reporting Station
Few Clouds Few Clouds  
Wind Chill: 28°   Ceiling: Unl
Heat Index: 28°   Visibility: 10mi
Dew Point: 16°   Wind: 12mph
Humidity: 47%   Direction: 350°N
Pressure: 29.91"   Gusts: 16mph
Location:  25.77°N, 80.19°W
Report Text: KMIA 251653Z 35010G14KT 10SM FEW035 28/16 A2991 RMK AO2 SLP129 T02780156
Loading
Personal Weather Stations






























Interactive Weather Map
Tropical Storm Tracking
New forecast layout! Learn more

10-Day Weather Forecast

Advertisements
Track Severe Weather on mobile